Terminal Aerodrome Forecast
Issued by NWS Sioux Falls, SD

Home | Current Version | Previous Version | Graphics & Text | Print | Product List | Glossary On
Versions: 1 2 3 4 5 6 7 8 9 10 11 12 13 14 15 16 17 18 19 20 21 22 23
537
FTUS43 KFSD 231120
TAFHON
TAF
KHON 231120Z 2312/2412 16017KT P6SM OVC200
     FM231300 16014KT P6SM OVC070
     FM231600 16015G25KT P6SM OVC025
     FM231800 15012KT P6SM -DZ OVC012
     FM232000 10009KT 4SM -DZ BR OVC005
     FM240200 06008KT 4SM BR VCSH OVC005
     FM240600 36011KT 4SM BR OVC008=

USA.gov is the U.S. government's official web portal to all federal, state and local government web resources and services.